Time;durP1;ratioP1;P1;durP2;ratioP2;P2;SDS_P1;SDS_P2;PMS_P1;PMS_P2;Temp;Humidity;BMP_temperature;BMP_pressure;BME280_temperature;BME280_humidity;BME280_pressure;Samples;Min_cycle;Max_cycle;Signal;HPM_P1;HPM_P2
2019/04/17 00:02:34;;;;;;;15.9;13.8;;;;;;;9.7;65.2959;962.8111;;;;
2019/04/17 00:07:17;;;;;;;16.2;13.3;;;;;;;9.43;67.1084;962.8113;;;;
2019/04/17 00:09:31;;;;;;;16;13.3;;;;;;;9.47;66.75781;962.7603;;;;
2019/04/17 00:11:57;;;;;;;15.4;13.8;;;;;;;9.49;66.83008;962.7629;;;;
2019/04/17 00:14:22;;;;;;;14.6;12.9;;;;;;;9.52;66.92676;962.8325;;;;
2019/04/17 00:17:01;;;;;;;19;13.6;;;;;;;9.46;66.24902;962.8425;;;;
2019/04/17 00:19:42;;;;;;;17.7;13.6;;;;;;;9.53;66.31738;962.8743;;;;
2019/04/17 00:22:10;;;;;;;14.8;12.6;;;;;;;9.62;65.69922;962.8567;;;;
2019/04/17 00:24:48;;;;;;;16.9;13.4;;;;;;;9.63;66.18457;962.8343;;;;
2019/04/17 00:27:31;;;;;;;18.2;13.4;;;;;;;9.67;65.86719;962.8347;;;;
2019/04/17 00:30:02;;;;;;;16.6;13.6;;;;;;;9.7;66.59668;962.8661;;;;
2019/04/17 00:32:48;;;;;;;18.2;14.3;;;;;;;9.53;67.36523;962.8105;;;;
2019/04/17 00:35:12;;;;;;;16.1;13.1;;;;;;;9.59;66.96094;962.8596;;;;
2019/04/17 00:40:11;;;;;;;18.7;13.7;;;;;;;9.67;66.25879;962.8691;;;;
2019/04/17 00:42:41;;;;;;;16.2;13;;;;;;;9.71;66.18555;962.8566;;;;
2019/04/17 00:45:01;;;;;;;15.5;13.1;;;;;;;9.71;66.48438;962.8901;;;;
2019/04/17 00:47:29;;;;;;;19.6;13.5;;;;;;;9.69;65.84766;962.8842;;;;
2019/04/17 00:49:54;;;;;;;19.1;14.1;;;;;;;9.56;67.03711;962.8795;;;;
2019/04/17 00:52:29;;;;;;;18.2;14.4;;;;;;;9.56;67.61133;962.9007;;;;
2019/04/17 00:55:04;;;;;;;18.1;13.9;;;;;;;9.65;66.80859;962.9645;;;;
2019/04/17 01:00:09;;;;;;;15.3;13;;;;;;;9.7;65.51563;963.002;;;;
2019/04/17 01:02:34;;;;;;;16;13.3;;;;;;;9.69;65.99707;962.9944;;;;
2019/04/17 01:05:12;;;;;;;15.6;13.6;;;;;;;9.75;65.62598;963.0829;;;;
2019/04/17 01:07:44;;;;;;;17.5;14.1;;;;;;;9.64;66.96777;963.038;;;;
2019/04/17 01:10:23;;;;;;;17.6;14.1;;;;;;;9.7;65.83691;963.0027;;;;
2019/04/17 01:12:52;;;;;;;17.4;14;;;;;;;9.68;66.18066;963.0806;;;;
2019/04/17 01:15:30;;;;;;;16.2;13.7;;;;;;;9.64;66.28809;963.0636;;;;
2019/04/17 01:17:58;;;;;;;16.7;13.8;;;;;;;9.7;66.37988;963.0108;;;;
2019/04/17 01:20:35;;;;;;;16.2;13;;;;;;;9.61;66.46777;963.0579;;;;
2019/04/17 01:23:02;;;;;;;15.5;13.4;;;;;;;9.67;65.99414;963.0991;;;;
2019/04/17 01:25:44;;;;;;;15.2;13.5;;;;;;;9.51;67.00586;963.0033;;;;
2019/04/17 01:28:23;;;;;;;14.8;12.7;;;;;;;9.44;68.25;963.0228;;;;
2019/04/17 01:30:54;;;;;;;16.6;14.3;;;;;;;9.59;66.85645;963.0215;;;;
2019/04/17 01:33:26;;;;;;;15.7;14.1;;;;;;;9.63;67.02539;962.9366;;;;
2019/04/17 01:35:52;;;;;;;18.5;15;;;;;;;9.41;68.57813;962.9235;;;;
2019/04/17 01:40:57;;;;;;;15.9;14.2;;;;;;;9.53;67.67578;962.9973;;;;
2019/04/17 01:43:29;;;;;;;15.7;14;;;;;;;9.56;67.35742;963.0668;;;;
2019/04/17 01:51:07;;;;;;;16.6;14.7;;;;;;;9.58;67.74219;963.0648;;;;
2019/04/17 01:53:39;;;;;;;16.4;14.5;;;;;;;9.58;67.66113;963.0608;;;;
2019/04/17 01:56:18;;;;;;;19.2;15.5;;;;;;;9.55;68.12891;963.0284;;;;
2019/04/17 01:59:01;;;;;;;17.1;15.3;;;;;;;9.59;68.11328;963.0336;;;;
2019/04/17 02:06:53;;;;;;;18.7;15.4;;;;;;;9.81;67.6875;963.0338;;;;
2019/04/17 02:11:48;;;;;;;18.6;16.2;;;;;;;9.68;69.50781;963.0726;;;;
2019/04/17 02:21:54;;;;;;;21.3;16.8;;;;;;;9.52;70.21875;963.105;;;;
2019/04/17 02:24:34;;;;;;;20.2;17.1;;;;;;;9.6;70.03613;963.0672;;;;
2019/04/17 02:27:02;;;;;;;20;17.7;;;;;;;9.56;70.17969;963.1046;;;;
2019/04/17 02:29:32;;;;;;;19.8;16.5;;;;;;;9.62;70.06152;963.0572;;;;
2019/04/17 02:32:02;;;;;;;19.3;17.2;;;;;;;9.7;69.81055;963.1177;;;;
2019/04/17 02:34:28;;;;;;;18.5;15.8;;;;;;;9.78;69.47754;963.1309;;;;
2019/04/17 02:36:54;;;;;;;20;17.6;;;;;;;9.72;69.83594;963.192;;;;
2019/04/17 02:39:25;;;;;;;21.5;18.1;;;;;;;9.71;70.2041;963.1928;;;;
2019/04/17 02:42:37;;;;;;;19.1;17.1;;;;;;;9.65;70.52637;963.165;;;;
2019/04/17 02:44:44;;;;;;;19.5;17.3;;;;;;;9.68;70.41797;963.1917;;;;
2019/04/17 02:47:05;;;;;;;19.4;17.3;;;;;;;9.54;71.20117;963.1833;;;;
2019/04/17 02:49:31;;;;;;;20.3;17.3;;;;;;;9.58;70.30957;963.21;;;;
2019/04/17 02:51:59;;;;;;;19.5;17.4;;;;;;;9.66;70.12695;963.1892;;;;
2019/04/17 02:54:41;;;;;;;20.6;17.9;;;;;;;9.54;71.30469;963.2687;;;;
2019/04/17 02:57:11;;;;;;;21.3;16.9;;;;;;;9.48;70.97266;963.1766;;;;
2019/04/17 02:59:43;;;;;;;21.6;17.3;;;;;;;9.53;71.38379;963.193;;;;
2019/04/17 03:02:09;;;;;;;18.5;16;;;;;;;9.5;71.72363;963.1622;;;;
2019/04/17 03:04:45;;;;;;;21.6;17.9;;;;;;;9.56;71.26074;963.1267;;;;
2019/04/17 03:07:23;;;;;;;19.7;17.6;;;;;;;9.52;70.70215;963.1434;;;;
2019/04/17 03:10:00;;;;;;;19.2;17.2;;;;;;;9.52;70.54199;963.0963;;;;
2019/04/17 03:12:31;;;;;;;21.3;17.3;;;;;;;9.46;70.86426;963.1786;;;;
2019/04/17 03:14:56;;;;;;;21.8;17;;;;;;;9.37;71.61035;963.1746;;;;
2019/04/17 03:17:31;;;;;;;21.3;17.4;;;;;;;9.32;71.48633;963.226;;;;
2019/04/17 03:20:08;;;;;;;18.9;16.3;;;;;;;9.37;72.42676;963.2599;;;;
2019/04/17 03:22:42;;;;;;;19.3;16.6;;;;;;;9.33;72.3623;963.1997;;;;
2019/04/17 03:25:17;;;;;;;20.8;18.3;;;;;;;9.3;72.71387;963.1772;;;;
2019/04/17 03:30:24;;;;;;;20.3;17.7;;;;;;;9.21;73.20605;963.2147;;;;
2019/04/17 03:32:50;;;;;;;20.7;17.4;;;;;;;9.21;73.67773;963.2402;;;;
2019/04/17 03:35:15;;;;;;;21.8;17.8;;;;;;;9.06;74.27148;963.2759;;;;
2019/04/17 03:37:56;;;;;;;20.3;18.2;;;;;;;9.08;74.22949;963.2404;;;;
2019/04/17 03:40:21;;;;;;;20.7;17.9;;;;;;;9.02;74.28809;963.2332;;;;
2019/04/17 03:43:05;;;;;;;21.3;19;;;;;;;8.93;74.60547;963.2074;;;;
2019/04/17 03:45:42;;;;;;;21.4;19.1;;;;;;;8.98;74.24707;963.2534;;;;
2019/04/17 03:48:17;;;;;;;22.3;19.3;;;;;;;9.02;74.32227;963.2626;;;;
2019/04/17 03:50:43;;;;;;;21.7;19.1;;;;;;;8.83;74.87598;963.3101;;;;
2019/04/17 03:58:44;;;;;;;23.1;20.4;;;;;;;8.86;75.49121;963.3583;;;;
2019/04/17 04:05:55;;;;;;;24.9;20.6;;;;;;;8.88;75.61914;963.4374;;;;
2019/04/17 04:11:23;;;;;;;24.9;20.7;;;;;;;8.9;75.53223;963.4267;;;;
2019/04/17 04:21:34;;;;;;;23;19.5;;;;;;;8.89;75.55176;963.4239;;;;
2019/04/17 04:26:41;;;;;;;21.4;19.1;;;;;;;8.98;75.41992;963.4402;;;;
2019/04/17 04:34:20;;;;;;;22.2;19.6;;;;;;;8.93;76.28418;963.4626;;;;
2019/04/17 04:36:50;;;;;;;23;19.9;;;;;;;9.01;75.71191;963.4637;;;;
2019/04/17 04:42:02;;;;;;;22;18.7;;;;;;;8.98;75.61523;963.5383;;;;
2019/04/17 04:49:35;;;;;;;22.2;18.9;;;;;;;8.86;76.92871;963.592;;;;
2019/04/17 04:52:04;;;;;;;23.6;19.2;;;;;;;8.95;76.11621;963.6091;;;;
2019/04/17 04:54:37;;;;;;;22.8;18.9;;;;;;;8.99;75.9502;963.6016;;;;
2019/04/17 04:57:01;;;;;;;21.6;18.2;;;;;;;9.08;75.66699;963.6992;;;;
2019/04/17 04:59:26;;;;;;;22.3;18.7;;;;;;;9.12;75.16895;963.7428;;;;
2019/04/17 05:01:52;;;;;;;21.3;18.8;;;;;;;9.05;75.19141;963.7147;;;;
2019/04/17 05:04:43;;;;;;;22.6;18.1;;;;;;;9.01;75.84961;963.7142;;;;
2019/04/17 05:09:32;;;;;;;24;19.5;;;;;;;8.93;77.26172;963.7723;;;;
2019/04/17 05:14:45;;;;;;;20.9;18;;;;;;;9.21;76.0127;963.8875;;;;
2019/04/17 05:17:08;;;;;;;20.8;18.6;;;;;;;9.23;76.37207;963.8898;;;;
2019/04/17 05:19:30;;;;;;;22.5;18;;;;;;;9.37;75.0498;963.8858;;;;
2019/04/17 05:22:05;;;;;;;20.9;18;;;;;;;9.45;74.50195;963.8564;;;;
2019/04/17 05:24:35;;;;;;;23.3;18.9;;;;;;;9.41;75.19629;963.8775;;;;
2019/04/17 05:27:26;;;;;;;20.7;18.3;;;;;;;9.38;75.52441;963.8715;;;;
2019/04/17 05:30:01;;;;;;;22;19;;;;;;;9.23;75.90137;963.937;;;;
2019/04/17 05:32:20;;;;;;;21.2;18.6;;;;;;;9.29;75.49609;963.9655;;;;
2019/04/17 05:34:53;;;;;;;26;18.3;;;;;;;9.49;75.04883;963.8911;;;;
2019/04/17 05:37:20;;;;;;;23.2;18.8;;;;;;;9.58;74.71875;963.9375;;;;
2019/04/17 05:39:51;;;;;;;22.7;19.1;;;;;;;9.7;74.81934;963.9611;;;;
2019/04/17 05:42:29;;;;;;;22;17.6;;;;;;;9.92;73.19922;963.9105;;;;
2019/04/17 05:44:54;;;;;;;22.3;18.4;;;;;;;9.76;75.1875;964.0535;;;;
2019/04/17 05:47:19;;;;;;;20.4;18.2;;;;;;;9.87;74.04395;964.0895;;;;
2019/04/17 05:49:53;;;;;;;19.6;17.5;;;;;;;10.04;73.03418;964.0647;;;;
2019/04/17 05:52:18;;;;;;;22.5;18;;;;;;;10.19;72.16113;964.05;;;;
2019/04/17 05:55:00;;;;;;;21.7;19.4;;;;;;;9.93;73.17871;964.0406;;;;
2019/04/17 05:57:37;;;;;;;21;18.8;;;;;;;10.02;73.56348;964.1133;;;;
2019/04/17 06:00:20;;;;;;;24;19.2;;;;;;;10.08;73.44531;964.1289;;;;
2019/04/17 06:03:02;;;;;;;23.4;19.7;;;;;;;10.26;72.3916;964.1418;;;;
2019/04/17 06:08:11;;;;;;;22.1;19.7;;;;;;;10.39;71.52637;964.15;;;;
2019/04/17 06:10:26;;;;;;;23.6;19.3;;;;;;;10.25;72.59668;964.1602;;;;
2019/04/17 06:13:05;;;;;;;25.1;20.4;;;;;;;10.29;72.5;964.2245;;;;
2019/04/17 06:20:49;;;;;;;26.3;21.4;;;;;;;10.57;72.14453;964.3032;;;;
2019/04/17 06:23:05;;;;;;;27.1;22.3;;;;;;;10.75;71.34277;964.3244;;;;
2019/04/17 06:25:30;;;;;;;27.7;23.4;;;;;;;10.61;71.2959;964.3723;;;;
2019/04/17 06:28:14;;;;;;;29;24.5;;;;;;;10.5;71.625;964.3357;;;;
2019/04/17 06:30:43;;;;;;;28.8;24.3;;;;;;;10.47;72.63574;964.2745;;;;
2019/04/17 06:33:20;;;;;;;28.1;24.9;;;;;;;10.54;72.35742;964.2728;;;;
2019/04/17 06:35:45;;;;;;;27.3;23.3;;;;;;;10.97;70.08594;964.259;;;;
2019/04/17 06:38:31;;;;;;;30.1;25.3;;;;;;;10.9;70.32715;964.2413;;;;
2019/04/17 06:41:18;;;;;;;30.7;25;;;;;;;10.88;70.69531;964.2939;;;;
2019/04/17 06:43:46;;;;;;;30.1;24.9;;;;;;;10.95;70.23145;964.3128;;;;
2019/04/17 06:51:40;;;;;;;31.2;25.7;;;;;;;11.09;70.00098;964.2991;;;;
2019/04/17 06:54:04;;;;;;;31.3;26.3;;;;;;;10.95;69.33203;964.3552;;;;
2019/04/17 06:56:35;;;;;;;31.1;26.2;;;;;;;10.97;70.68652;964.3792;;;;
2019/04/17 06:59:31;;;;;;;30;26;;;;;;;10.86;69.97656;964.4283;;;;
2019/04/17 07:06:55;;;;;;;28.8;25.5;;;;;;;11.06;69.19922;964.5237;;;;
2019/04/17 07:09:34;;;;;;;30;25.9;;;;;;;11.05;69.77539;964.5806;;;;
2019/04/17 07:12:10;;;;;;;31.2;25.7;;;;;;;11.04;69.3916;964.5773;;;;
2019/04/17 07:14:27;;;;;;;30.7;26.8;;;;;;;10.94;70.2207;964.6082;;;;
2019/04/17 07:16:58;;;;;;;29.2;24.6;;;;;;;11.19;69.58887;964.6261;;;;
2019/04/17 07:19:35;;;;;;;27.3;24.3;;;;;;;11.43;67.74512;964.5848;;;;
2019/04/17 07:22:06;;;;;;;26.5;23.6;;;;;;;11.57;68.93555;964.6005;;;;
2019/04/17 07:24:40;;;;;;;26.5;23.6;;;;;;;11.36;69.60449;964.5924;;;;
2019/04/17 07:29:39;;;;;;;28.3;24.2;;;;;;;11.14;68.80664;964.6019;;;;
2019/04/17 07:32:19;;;;;;;26.3;23.3;;;;;;;11.45;65.31836;964.5488;;;;
2019/04/17 07:42:21;;;;;;;24.1;21.5;;;;;;;11.57;60.88379;964.7463;;;;
2019/04/17 07:44:50;;;;;;;24.1;20.3;;;;;;;11.85;59.48926;964.7473;;;;
2019/04/17 07:47:23;;;;;;;25.4;21.3;;;;;;;11.71;61.34375;964.7827;;;;
2019/04/17 07:50:04;;;;;;;22.5;19.9;;;;;;;11.87;59.68652;964.8229;;;;
2019/04/17 07:55:53;;;;;;;23.4;20.4;;;;;;;11.83;60.02734;964.8187;;;;
2019/04/17 08:00:07;;;;;;;25.1;21.4;;;;;;;11.73;60.00391;964.8792;;;;
2019/04/17 08:02:44;;;;;;;24;21.4;;;;;;;11.79;60.90234;964.8647;;;;
2019/04/17 08:05:05;;;;;;;23.6;21;;;;;;;12.2;58.45898;964.8442;;;;
2019/04/17 08:07:30;;;;;;;23.9;20.4;;;;;;;12.55;56.89355;964.7946;;;;
2019/04/17 08:09:56;;;;;;;23.5;21;;;;;;;12.67;57.91895;964.7996;;;;
2019/04/17 08:12:22;;;;;;;24.4;21.5;;;;;;;12.71;57.22754;964.7866;;;;
2019/04/17 08:14:54;;;;;;;26.2;22.3;;;;;;;12.87;58.72266;964.9236;;;;
2019/04/17 08:17:32;;;;;;;26.3;21.6;;;;;;;12.93;57.80273;964.8233;;;;
2019/04/17 08:19:59;;;;;;;28.3;21.1;;;;;;;13.12;59.2334;964.8412;;;;
2019/04/17 08:22:27;;;;;;;23;20.5;;;;;;;13.01;54.84277;964.8189;;;;
2019/04/17 08:25:02;;;;;;;25.5;21.5;;;;;;;13.34;57.41504;964.8097;;;;
2019/04/17 08:30:20;;;;;;;26.2;22.5;;;;;;;13.5;56.27441;964.8524;;;;
2019/04/17 08:37:48;;;;;;;25.9;21.8;;;;;;;14.16;52.89355;964.968;;;;
2019/04/17 08:40:21;;;;;;;24;21;;;;;;;14.49;52.11816;964.9405;;;;
2019/04/17 08:45:28;;;;;;;26;22.2;;;;;;;14.65;52.59082;964.9221;;;;
2019/04/17 08:48:04;;;;;;;24.5;21.8;;;;;;;14.16;52.88086;964.8996;;;;
2019/04/17 08:50:29;;;;;;;24.2;21.2;;;;;;;14.04;54.70508;964.9561;;;;
2019/04/17 08:53:12;;;;;;;24.9;22.2;;;;;;;14.21;54.69141;964.9583;;;;
2019/04/17 08:55:39;;;;;;;25.1;21.4;;;;;;;14.85;51.99902;964.9888;;;;
2019/04/17 08:58:05;;;;;;;25.7;22;;;;;;;14.87;50.50879;964.9998;;;;
2019/04/17 09:00:34;;;;;;;24.3;21.6;;;;;;;15.33;49.50098;964.9769;;;;
2019/04/17 09:02:54;;;;;;;24;21.4;;;;;;;15.47;52.98145;965.0422;;;;
2019/04/17 09:05:21;;;;;;;24.1;20.5;;;;;;;15.15;51.50879;965.0627;;;;
2019/04/17 09:07:47;;;;;;;23.7;21.2;;;;;;;15.13;52.07813;965.0305;;;;
2019/04/17 09:10:14;;;;;;;23.8;20.4;;;;;;;15.37;50.36816;965.0072;;;;
2019/04/17 09:12:58;;;;;;;23.9;20.6;;;;;;;15.35;48.28809;964.988;;;;
2019/04/17 09:18:08;;;;;;;24.2;21.1;;;;;;;15.53;49.7334;965.035;;;;
2019/04/17 09:23:05;;;;;;;24.3;21.7;;;;;;;15.24;52.51074;964.9707;;;;
2019/04/17 09:25:36;;;;;;;24.2;21.2;;;;;;;15.76;51.74316;964.9874;;;;
2019/04/17 09:27:58;;;;;;;23.9;21.3;;;;;;;15.79;50.22949;964.9749;;;;
2019/04/17 09:30:30;;;;;;;25.2;21.7;;;;;;;15.6;48.93457;964.9972;;;;
2019/04/17 09:33:11;;;;;;;23.6;21.1;;;;;;;15.57;47.64746;964.9611;;;;
2019/04/17 09:35:36;;;;;;;24.6;21.8;;;;;;;15.99;50.50879;964.9515;;;;
2019/04/17 09:38:13;;;;;;;24.8;22.1;;;;;;;15.92;49.91797;964.899;;;;
2019/04/17 09:40:45;;;;;;;23.7;20.4;;;;;;;16.15;49.69824;964.9192;;;;
2019/04/17 09:43:21;;;;;;;26.9;20.8;;;;;;;16.2;50.99023;964.926;;;;
2019/04/17 09:45:47;;;;;;;26.3;20.4;;;;;;;16.44;49.32129;964.8933;;;;
2019/04/17 09:48:19;;;;;;;23.8;20.7;;;;;;;16.37;51.04492;964.97;;;;
2019/04/17 09:50:49;;;;;;;25.4;21.2;;;;;;;16.49;50.2041;964.8917;;;;
2019/04/17 09:53:28;;;;;;;25.3;21.3;;;;;;;16.43;49.43652;964.9122;;;;
2019/04/17 09:56:12;;;;;;;24.1;21.5;;;;;;;16.53;48.84082;964.8474;;;;
2019/04/17 09:58:45;;;;;;;23.3;20.9;;;;;;;16.3;49.43457;964.8235;;;;
2019/04/17 10:03:44;;;;;;;24.3;21;;;;;;;16.85;48.6543;964.8859;;;;
2019/04/17 10:08:32;;;;;;;23.5;20.6;;;;;;;17.39;46.76758;964.8156;;;;
2019/04/17 10:11:19;;;;;;;24.7;20.4;;;;;;;17.53;45.30566;964.8195;;;;
2019/04/17 10:13:39;;;;;;;24.6;20.5;;;;;;;17.42;47.11035;964.8208;;;;
2019/04/17 10:16:09;;;;;;;33.1;21;;;;;;;17.36;43.64746;964.8365;;;;
2019/04/17 10:18:44;;;;;;;22.3;19.6;;;;;;;17.55;42.10645;964.8035;;;;
2019/04/17 10:21:29;;;;;;;23.2;20.7;;;;;;;17.53;42.15137;964.72;;;;
2019/04/17 10:23:54;;;;;;;23.9;21.3;;;;;;;17.45;43.65625;964.7344;;;;
2019/04/17 10:26:41;;;;;;;23.4;20.9;;;;;;;17.88;43.28809;964.7193;;;;
2019/04/17 10:29:25;;;;;;;23.9;21.3;;;;;;;17.8;44.62891;964.7084;;;;
2019/04/17 10:31:41;;;;;;;24.4;21.6;;;;;;;17.68;44.62793;964.6627;;;;
2019/04/17 10:36:37;;;;;;;22.8;20.3;;;;;;;18.33;43.36719;964.7006;;;;
2019/04/17 10:38:53;;;;;;;22.7;20.4;;;;;;;18.51;43.64355;964.6908;;;;
2019/04/17 10:46:30;;;;;;;24.5;20;;;;;;;18.24;42.17285;964.6297;;;;
2019/04/17 10:49:04;;;;;;;22.8;20.4;;;;;;;18.7;41.13477;964.7388;;;;
2019/04/17 10:51:33;;;;;;;23;20.2;;;;;;;18.57;40.37012;964.6917;;;;
2019/04/17 10:54:03;;;;;;;27.5;20.1;;;;;;;18.68;41.25;964.6855;;;;
2019/04/17 10:59:19;;;;;;;22.9;19.5;;;;;;;18.65;36.92188;964.5032;;;;
2019/04/17 11:02:06;;;;;;;21.4;19.1;;;;;;;19.32;38.00195;964.5922;;;;
2019/04/17 11:04:44;;;;;;;21.4;19.2;;;;;;;18.92;38.25098;964.6409;;;;
2019/04/17 11:07:31;;;;;;;22.5;18.9;;;;;;;19.01;34.76465;964.6158;;;;
2019/04/17 11:09:51;;;;;;;23.2;18.5;;;;;;;19.28;34.92578;964.6242;;;;
2019/04/17 11:12:33;;;;;;;24;18.9;;;;;;;19.29;35.19824;964.6261;;;;
2019/04/17 11:15:09;;;;;;;20.1;17.9;;;;;;;19.7;33.58105;964.5112;;;;
2019/04/17 11:19:54;;;;;;;21.7;18.7;;;;;;;20.02;34.67871;964.5455;;;;
2019/04/17 11:22:29;;;;;;;22.6;18.3;;;;;;;19.76;33.49219;964.4639;;;;
2019/04/17 11:25:04;;;;;;;22.7;19.4;;;;;;;20.56;30.93066;964.4942;;;;
2019/04/17 11:27:30;;;;;;;21.2;18.7;;;;;;;20.33;33.35742;964.4556;;;;
2019/04/17 11:30:28;;;;;;;21;18.8;;;;;;;20.4;33.5752;964.468;;;;
2019/04/17 11:32:44;;;;;;;22.6;19.2;;;;;;;19.91;32.81934;964.3871;;;;
2019/04/17 11:35:14;;;;;;;24;18.7;;;;;;;19.89;32.81738;964.3644;;;;
2019/04/17 11:37:42;;;;;;;22.2;18.1;;;;;;;20.36;31.41211;964.3613;;;;
2019/04/17 11:40:07;;;;;;;21.7;18.2;;;;;;;20.21;32.0625;964.3293;;;;
2019/04/17 11:42:38;;;;;;;21.1;18.3;;;;;;;20.77;31.38281;964.2744;;;;
2019/04/17 11:45:10;;;;;;;20.8;18.5;;;;;;;20.42;30.21387;964.2829;;;;
2019/04/17 11:50:19;;;;;;;19.5;17.4;;;;;;;21.41;27.51367;964.2177;;;;
2019/04/17 11:52:48;;;;;;;20.8;17.2;;;;;;;21.55;28.82324;964.3723;;;;
2019/04/17 11:55:19;;;;;;;21.3;17.5;;;;;;;21.2;27.84277;964.1997;;;;
2019/04/17 12:03:11;;;;;;;18.6;15.7;;;;;;;20.94;27.38965;964.1847;;;;
2019/04/17 12:05:34;;;;;;;19;16.5;;;;;;;21.32;29.28125;964.327;;;;
2019/04/17 12:08:07;;;;;;;20.4;18.2;;;;;;;21.79;29.24121;964.2201;;;;
2019/04/17 12:10:36;;;;;;;21.4;17.2;;;;;;;22.18;27.20508;964.2037;;;;
2019/04/17 12:13:10;;;;;;;18.9;16.9;;;;;;;21.95;26.81152;964.293;;;;
2019/04/17 12:15:38;;;;;;;19;16;;;;;;;20.91;27.69434;964.319;;;;
2019/04/17 12:18:15;;;;;;;19.9;16.8;;;;;;;21.6;27.19336;964.2173;;;;
2019/04/17 12:21:07;;;;;;;18.4;14.9;;;;;;;20.94;24.29395;964.2626;;;;
2019/04/17 12:25:59;;;;;;;21;17;;;;;;;21.69;25.79004;964.2084;;;;
2019/04/17 12:28:43;;;;;;;23.6;16.9;;;;;;;23;22.94629;964.1525;;;;
2019/04/17 12:31:24;;;;;;;19.1;16.1;;;;;;;21.94;25.42676;964.1938;;;;
2019/04/17 12:33:55;;;;;;;18.5;16.5;;;;;;;22.44;25.86914;964.2178;;;;
2019/04/17 12:36:22;;;;;;;23;16.7;;;;;;;22.43;25.25293;964.1839;;;;
2019/04/17 12:41:25;;;;;;;18.9;15.5;;;;;;;22.61;23.83887;964.2322;;;;
2019/04/17 12:43:50;;;;;;;18.8;15.9;;;;;;;22.6;23.95703;964.1291;;;;
2019/04/17 12:46:24;;;;;;;17.2;15.1;;;;;;;22.05;22.83789;964.1614;;;;
2019/04/17 12:48:59;;;;;;;16.7;14.4;;;;;;;22.87;22.41699;964.1233;;;;
2019/04/17 12:51:48;;;;;;;19.3;16.3;;;;;;;22.73;24;964.1086;;;;
2019/04/17 12:54:03;;;;;;;16.5;14.6;;;;;;;22.32;24.33398;964.1175;;;;
2019/04/17 12:56:47;;;;;;;16.3;14.4;;;;;;;22.01;25.60742;964.111;;;;
2019/04/17 12:59:00;;;;;;;16.2;14.3;;;;;;;23.25;21.55762;963.988;;;;
2019/04/17 13:04:30;;;;;;;14.5;13;;;;;;;23.1;21.89551;964.0187;;;;
2019/04/17 13:14:03;;;;;;;16.3;13.1;;;;;;;24.11;20.26563;963.9058;;;;
2019/04/17 13:16:52;;;;;;;14.8;12.6;;;;;;;23.48;20.80762;964.0106;;;;
2019/04/17 13:19:28;;;;;;;15.3;12.2;;;;;;;23.16;19.68848;963.8883;;;;
2019/04/17 13:21:53;;;;;;;14;12;;;;;;;23.84;20.54004;963.8856;;;;
2019/04/17 13:24:28;;;;;;;14.6;12.6;;;;;;;22.87;21.53906;963.9094;;;;
2019/04/17 13:26:56;;;;;;;14.1;12.5;;;;;;;22.77;19.84961;963.8459;;;;
2019/04/17 13:29:39;;;;;;;18.8;12.2;;;;;;;23.42;19.28418;963.8189;;;;
2019/04/17 13:32:15;;;;;;;14.2;12.3;;;;;;;23.1;21.06348;963.8059;;;;
2019/04/17 13:34:40;;;;;;;13.9;12.2;;;;;;;23.79;21.33398;963.8272;;;;
2019/04/17 13:37:30;;;;;;;16.3;13.1;;;;;;;23.52;20.87012;963.6641;;;;
2019/04/17 13:47:25;;;;;;;12;10.8;;;;;;;23.04;18.87598;963.7199;;;;
2019/04/17 13:49:49;;;;;;;13.6;10.6;;;;;;;22.99;19.21875;963.6616;;;;
2019/04/17 13:52:21;;;;;;;13.3;11.5;;;;;;;23.48;19.16797;963.5927;;;;
2019/04/17 13:54:57;;;;;;;11.8;10.2;;;;;;;24.9;17.57227;963.6821;;;;
2019/04/17 13:57:21;;;;;;;12.2;10.4;;;;;;;24.09;18.99219;963.6859;;;;
2019/04/17 13:59:45;;;;;;;13.2;10.3;;;;;;;23.72;19.79688;963.7161;;;;
2019/04/17 14:02:33;;;;;;;11.5;9.9;;;;;;;22.94;19.80957;963.6736;;;;
2019/04/17 14:05:12;;;;;;;12;9.8;;;;;;;22.12;19.5957;963.6381;;;;
2019/04/17 14:13:09;;;;;;;10.4;9.1;;;;;;;23.38;18.66504;963.647;;;;
2019/04/17 14:21:29;;;;;;;10.4;8.6;;;;;;;22.58;20.24414;963.6057;;;;
2019/04/17 14:24:06;;;;;;;11.8;8.7;;;;;;;22.7;20.45215;963.6263;;;;
2019/04/17 14:26:49;;;;;;;10.9;8.2;;;;;;;23.85;18.16211;963.6177;;;;
2019/04/17 14:29:27;;;;;;;16.3;8.9;;;;;;;23.11;17.22852;963.618;;;;
2019/04/17 14:32:10;;;;;;;10;8.6;;;;;;;23.57;17.60254;963.5616;;;;
2019/04/17 14:34:52;;;;;;;9.2;8.1;;;;;;;23.27;17.53125;963.5768;;;;
2019/04/17 14:37:15;;;;;;;10.9;8;;;;;;;22.34;19.1543;963.5714;;;;
2019/04/17 14:39:48;;;;;;;8.7;7.3;;;;;;;22.58;18.54883;963.6275;;;;
2019/04/17 14:42:13;;;;;;;11.1;8.3;;;;;;;24.11;17.57617;963.5396;;;;
2019/04/17 14:44:44;;;;;;;10.2;7.8;;;;;;;23.61;17.54492;963.4892;;;;
2019/04/17 14:52:35;;;;;;;9.5;7.6;;;;;;;22.62;17.18555;963.4953;;;;
2019/04/17 14:55:29;;;;;;;9.7;7.1;;;;;;;22.95;16.32031;963.4062;;;;
2019/04/17 14:57:50;;;;;;;9;7.6;;;;;;;23.15;16.60059;963.4847;;;;
2019/04/17 15:05:30;;;;;;;7.8;6.9;;;;;;;24.36;16.76465;963.4702;;;;
2019/04/17 15:08:02;;;;;;;9.2;8.1;;;;;;;24.45;15.73242;963.5569;;;;
2019/04/17 15:10:33;;;;;;;10.3;8.1;;;;;;;22.78;17.60742;963.5798;;;;
2019/04/17 15:15:28;;;;;;;8.7;7.8;;;;;;;22.63;17.88574;963.6158;;;;
2019/04/17 15:17:59;;;;;;;9.7;8.2;;;;;;;22.4;17.35547;963.5665;;;;
2019/04/17 15:20:25;;;;;;;9.8;7.6;;;;;;;22.58;17.65918;963.6578;;;;
2019/04/17 15:22:53;;;;;;;8.9;8;;;;;;;22.31;16.91309;963.6972;;;;
2019/04/17 15:25:18;;;;;;;13;8.6;;;;;;;22.29;17.5166;963.6916;;;;
2019/04/17 15:28:05;;;;;;;10;8.8;;;;;;;22.6;16.6748;963.6633;;;;
2019/04/17 15:30:35;;;;;;;9.6;8.2;;;;;;;23.45;17.82422;963.6102;;;;
2019/04/17 15:33:05;;;;;;;10.6;9.3;;;;;;;23.01;18.06738;963.5887;;;;
2019/04/17 15:35:35;;;;;;;11.5;8.8;;;;;;;22.35;18.30078;963.6694;;;;
2019/04/17 15:38:22;;;;;;;10.2;8.5;;;;;;;22.6;17.25684;963.6803;;;;
2019/04/17 15:41:06;;;;;;;10.1;9;;;;;;;22.29;17.375;963.6694;;;;
2019/04/17 15:43:49;;;;;;;10.9;9.7;;;;;;;23.09;17.81055;963.6205;;;;
2019/04/17 15:49:00;;;;;;;10.6;8.5;;;;;;;23.11;16.5166;963.5961;;;;
2019/04/17 15:51:48;;;;;;;9.2;7.5;;;;;;;23.18;16.73242;963.6195;;;;
2019/04/17 15:54:24;;;;;;;8.6;7.7;;;;;;;21.41;18.54688;963.5457;;;;
2019/04/17 15:57:04;;;;;;;10.2;8.1;;;;;;;22.75;16.37207;963.5974;;;;
2019/04/17 15:59:29;;;;;;;10.7;8.6;;;;;;;22.05;16.95117;963.64;;;;
2019/04/17 16:02:16;;;;;;;9.9;8.9;;;;;;;22.71;16.9873;963.6725;;;;
2019/04/17 16:04:49;;;;;;;9.3;8.3;;;;;;;22.77;17.3457;963.6462;;;;
2019/04/17 16:07:30;;;;;;;10.3;8.5;;;;;;;23.72;15.59961;963.6638;;;;
2019/04/17 16:12:24;;;;;;;9.3;8.4;;;;;;;21.93;18.10645;963.6267;;;;
2019/04/17 16:20:12;;;;;;;12.1;8.8;;;;;;;21.36;17.90625;963.6616;;;;
2019/04/17 16:22:43;;;;;;;14;9.5;;;;;;;20.34;19.24512;963.6445;;;;
2019/04/17 16:24:58;;;;;;;13.1;9.9;;;;;;;21.69;17.94336;963.7352;;;;
2019/04/17 16:27:46;;;;;;;11.1;9.5;;;;;;;20.35;20.00098;963.7514;;;;
2019/04/17 16:35:22;;;;;;;10.8;8.8;;;;;;;20.87;18.68945;963.7349;;;;
2019/04/17 16:40:16;;;;;;;11;8.7;;;;;;;20.26;18.81738;963.7031;;;;
2019/04/17 16:42:51;;;;;;;12.5;9.7;;;;;;;19.98;20.04297;963.6893;;;;
2019/04/17 16:45:16;;;;;;;11.2;9.1;;;;;;;20.84;18.8418;963.6479;;;;
2019/04/17 16:47:52;;;;;;;15.3;10.1;;;;;;;19.71;20.25488;963.6322;;;;
2019/04/17 16:50:34;;;;;;;11;9.2;;;;;;;20.18;20.00586;963.6707;;;;
2019/04/17 16:52:58;;;;;;;13.4;9.1;;;;;;;20.23;18.92285;963.6765;;;;
2019/04/17 16:55:30;;;;;;;11.2;10;;;;;;;20.35;18.80957;963.6604;;;;
2019/04/17 16:58:02;;;;;;;11.2;9.8;;;;;;;20.38;18.85742;963.7252;;;;
2019/04/17 17:00:27;;;;;;;13.1;9.9;;;;;;;19.35;20.4502;963.7456;;;;
2019/04/17 17:03:10;;;;;;;14.1;10.5;;;;;;;19.04;20.63574;963.7697;;;;
2019/04/17 17:05:35;;;;;;;13;10.5;;;;;;;18.98;20.60938;963.7169;;;;
2019/04/17 17:08:02;;;;;;;14.9;10.8;;;;;;;19.41;20.13477;963.7932;;;;
2019/04/17 17:10:27;;;;;;;15.5;11.5;;;;;;;19.85;19.7666;963.7122;;;;
2019/04/17 17:12:55;;;;;;;16.6;11.3;;;;;;;19.39;21.41797;963.6965;;;;
2019/04/17 17:15:26;;;;;;;12.4;10.8;;;;;;;19.25;20.30469;963.7458;;;;
2019/04/17 17:17:49;;;;;;;12.8;9.8;;;;;;;18.83;20.95508;963.8101;;;;
2019/04/17 17:20:25;;;;;;;12;10.1;;;;;;;18.89;21.58203;963.8588;;;;
2019/04/17 17:22:53;;;;;;;13.2;10.1;;;;;;;18.86;20.61621;963.832;;;;
2019/04/17 17:25:18;;;;;;;12.4;9.8;;;;;;;18.97;20.43262;963.8566;;;;
2019/04/17 17:27:52;;;;;;;11.8;9.8;;;;;;;18.86;20.81641;963.9009;;;;
2019/04/17 17:37:56;;;;;;;13.2;9.3;;;;;;;17.23;23.5625;963.8865;;;;
2019/04/17 17:45:20;;;;;;;11.5;9.4;;;;;;;16.43;24.33887;963.9989;;;;
2019/04/17 17:47:59;;;;;;;14.1;10.1;;;;;;;16.52;24.05078;964.0353;;;;
2019/04/17 17:50:29;;;;;;;10.4;9.3;;;;;;;16.19;25.00293;964.0326;;;;
2019/04/17 17:55:41;;;;;;;11.8;9.9;;;;;;;15.8;25.56445;964.0666;;;;
2019/04/17 17:58:19;;;;;;;12.4;10;;;;;;;15.7;26.0498;964.1213;;;;
2019/04/17 18:05:52;;;;;;;10.5;9.4;;;;;;;15.23;26.96582;964.155;;;;
2019/04/17 18:08:42;;;;;;;15.8;10.1;;;;;;;15.1;27.36621;964.1914;;;;
2019/04/17 18:11:16;;;;;;;10.7;9.6;;;;;;;14.91;27.48242;964.1668;;;;
2019/04/17 18:13:42;;;;;;;13.4;10;;;;;;;14.78;27.80078;964.1947;;;;
2019/04/17 18:18:41;;;;;;;10.5;9.4;;;;;;;14.62;28.18652;964.2599;;;;
2019/04/17 18:21:51;;;;;;;10.8;9.6;;;;;;;14.66;28.28223;964.2645;;;;
2019/04/17 18:24:05;;;;;;;11.6;9.3;;;;;;;14.53;28.79688;964.3308;;;;
2019/04/17 18:29:42;;;;;;;11.8;9.2;;;;;;;14.32;28.92383;964.3233;;;;
2019/04/17 18:37:03;;;;;;;13.5;9;;;;;;;14.07;29.29102;964.3684;;;;
2019/04/17 18:39:41;;;;;;;10.8;9.4;;;;;;;14.07;29.33789;964.3942;;;;
2019/04/17 18:44:43;;;;;;;10.4;9.2;;;;;;;13.91;29.75684;964.4775;;;;